Aeroporto :
LOGIN :

Iscrizione | Disclaimer

   EN    FR    IT 

 










Sommario :    VFR   VFR Marginale   IFR   IFR Intensivo   IFR Molto Intensivo
Visibilità : 
Base nubi : 
>= 8 km
>= 3000ft
5 / 8 km
1000 / 3000 ft
1500m / 5 km
500 / 1000 ft
800 / 1500m
200 / 500 ft
< 800m
< 200 ft
Simboli :   Temporali  Nebbia  Neve Forte  Precipitazioni Forti  Vento > 20 kt
SIGMETs :   Varie  Temporali  Ghiacco  Turbolenza  Onda orograficha  Ceneri Vulcaniche







- Altitudine del aeroporto : 755 ft
- Codice IATA : DRS


EDDC - Dresden Klotzsche

ULTIMO METAR :
  • 220150Z 10004KT 080V140 CAVOK 07/02 Q1017

METARs OBSOLETI :
  • 220120Z 03005KT CAVOK 07/02 Q1017
  • 220050Z 14002KT CAVOK 11/02 Q1017
  • 220020Z 16003KT CAVOK 08/02 Q1018
  • 212350Z 18003KT CAVOK 09/02 Q1018
  • 212320Z 13002KT CAVOK 11/02 Q1018

TAF TAF EDDC
Valido dal 22 a 00 ore il 23 a 00 ore UTC


212300Z 2200/2224 09007KT CAVOK
BECMG 2208/2210 08015G30KT
BECMG 2218/2220 09011KT
Nessun NOTAM noto per questo aeroporto.



MetMap, La meteo Aeronautica in un colpo d'occhio ! - Copyright ORBIFLY Dicembre 2007 - Disclaimer

ORBIFLY MET'MAP TEAM :

Programmazione e sviluppo : Alexandra Zaïnal
Concezione e sviluppo : Baudouin d'Aumeries
Co-Programmazione e sviluppo : Marc-Olivier Méhu
Supporto tecnico e logistico : Manuel Goepfert
Aiuto per la traduzione : Arnaldo La Scala

Contatto : metmap@orbifly.com




FONTI E CREDITI :

   NOAA